createdAt,value
2023-04-18T00:01:15.143Z,10.08
2023-04-18T00:03:46.001Z,10.08
2023-04-18T00:06:14.405Z,10.09
2023-04-18T00:08:42.371Z,10.10
2023-04-18T00:11:10.641Z,10.12
2023-04-18T00:13:39.548Z,10.12
2023-04-18T00:16:08.739Z,10.13
2023-04-18T00:18:37.184Z,10.13
2023-04-18T00:21:06.064Z,10.13
2023-04-18T00:23:34.477Z,10.14
2023-04-18T00:26:02.674Z,10.14
2023-04-18T00:28:30.603Z,10.16
2023-04-18T00:30:58.706Z,10.18
2023-04-18T00:33:26.766Z,10.18
2023-04-18T00:35:54.759Z,10.20
2023-04-18T00:38:22.714Z,10.24
2023-04-18T00:40:50.687Z,10.25
2023-04-18T00:43:18.739Z,10.29
2023-04-18T00:45:46.838Z,10.32
2023-04-18T00:48:14.960Z,10.33
2023-04-18T00:50:43.143Z,10.37
2023-04-18T00:53:11.224Z,10.41
2023-04-18T00:55:39.931Z,10.45
2023-04-18T00:58:08.313Z,10.49
2023-04-18T01:00:36.984Z,10.49
2023-04-18T01:03:05.183Z,10.49
2023-04-18T01:05:33.254Z,10.50
2023-04-18T01:08:01.509Z,10.51
2023-04-18T01:10:31.212Z,10.50
2023-04-18T01:13:13.518Z,10.50
2023-04-18T01:15:47.391Z,10.48
2023-04-18T01:18:17.128Z,10.44
2023-04-18T01:20:47.633Z,10.41
2023-04-18T01:23:17.269Z,10.40
2023-04-18T01:25:46.796Z,10.38
2023-04-18T01:28:15.357Z,10.32
2023-04-18T01:30:43.449Z,10.33
2023-04-18T01:33:11.507Z,10.29
2023-04-18T01:35:39.515Z,10.28
2023-04-18T01:38:07.434Z,10.27
2023-04-18T01:40:35.436Z,10.29
2023-04-18T01:43:03.406Z,10.32
2023-04-18T01:45:31.432Z,10.33
2023-04-18T01:47:59.535Z,10.33
2023-04-18T01:50:27.680Z,10.34
2023-04-18T01:52:55.671Z,10.36
2023-04-18T01:55:23.729Z,10.35
2023-04-18T01:57:51.773Z,10.33
2023-04-18T02:00:21.219Z,10.33
2023-04-18T02:02:50.598Z,10.30
2023-04-18T02:05:18.972Z,10.28
2023-04-18T02:07:47.810Z,10.27
2023-04-18T02:10:15.839Z,10.27
2023-04-18T02:12:44.191Z,10.28
2023-04-18T02:15:12.311Z,10.28
2023-04-18T02:17:42.037Z,10.27
2023-04-18T02:20:11.052Z,10.24
2023-04-18T02:22:39.705Z,10.22
2023-04-18T02:25:08.306Z,10.21
2023-04-18T02:27:36.752Z,10.19
2023-04-18T02:30:05.810Z,10.20
2023-04-18T02:32:35.139Z,10.21
2023-04-18T02:35:03.413Z,10.22
2023-04-18T02:37:31.463Z,10.21
2023-04-18T02:39:59.423Z,10.22
2023-04-18T02:42:31.559Z,10.19
2023-04-18T02:44:59.557Z,10.16
2023-04-18T02:47:28.205Z,10.16
2023-04-18T02:49:56.295Z,10.13
2023-04-18T02:52:25.590Z,10.14
2023-04-18T02:54:53.756Z,10.15
2023-04-18T02:57:26.055Z,10.12
2023-04-18T03:00:23.327Z,10.08
2023-04-18T03:03:10.670Z,10.05
2023-04-18T03:05:43.121Z,10.06
2023-04-18T03:08:11.798Z,10.08
2023-04-18T03:10:40.167Z,10.12
2023-04-18T03:13:08.813Z,10.14
2023-04-18T03:15:37.705Z,10.16
2023-04-18T03:18:06.265Z,10.19
2023-04-18T03:20:37.786Z,10.19
2023-04-18T03:23:07.937Z,10.21
2023-04-18T03:25:36.004Z,10.22
2023-04-18T03:28:04.762Z,10.23
2023-04-18T03:30:33.434Z,10.25
2023-04-18T03:33:02.920Z,10.26
2023-04-18T03:35:31.594Z,10.27
2023-04-18T03:37:59.793Z,10.26
2023-04-18T03:40:32.573Z,10.23
2023-04-18T03:43:05.659Z,10.21
2023-04-18T03:45:33.684Z,10.23
2023-04-18T03:48:01.891Z,10.21
2023-04-18T03:50:30.281Z,10.20
2023-04-18T03:52:58.533Z,10.18
2023-04-18T03:55:26.730Z,10.17
2023-04-18T03:57:55.208Z,10.12
2023-04-18T04:00:27.798Z,10.08
2023-04-18T04:03:02.038Z,10.03
2023-04-18T04:05:30.291Z,10.00
2023-04-18T04:07:58.457Z,9.97
2023-04-18T04:10:26.424Z,9.95
2023-04-18T04:12:54.410Z,9.94
2023-04-18T04:15:22.574Z,9.94
2023-04-18T04:17:55.765Z,9.96
2023-04-18T04:20:25.973Z,10.00
2023-04-18T04:23:01.421Z,10.02
2023-04-18T04:25:29.888Z,10.09
2023-04-18T04:28:01.653Z,10.15
2023-04-18T04:30:29.937Z,10.20
2023-04-18T04:32:58.453Z,10.23
2023-04-18T04:35:26.990Z,10.26
2023-04-18T04:37:54.989Z,10.33
2023-04-18T04:40:31.501Z,10.41
2023-04-18T04:43:26.147Z,10.46
2023-04-18T04:45:54.327Z,10.52
2023-04-18T04:48:25.329Z,10.66
2023-04-18T04:50:56.024Z,11.11
2023-04-18T04:53:26.434Z,11.58
2023-04-18T04:55:54.544Z,11.86
2023-04-18T04:58:23.294Z,12.04
2023-04-18T05:01:04.645Z,12.19
2023-04-18T05:03:32.954Z,12.22
2023-04-18T05:06:01.385Z,12.25
2023-04-18T05:08:29.498Z,12.25
2023-04-18T05:10:57.536Z,12.31
2023-04-18T05:13:25.455Z,12.57
2023-04-18T05:15:53.466Z,12.59
2023-04-18T05:18:21.402Z,12.57
2023-04-18T05:20:49.495Z,12.56
2023-04-18T05:23:17.423Z,12.60
2023-04-18T05:25:45.402Z,12.63
2023-04-18T05:28:13.431Z,12.65
2023-04-18T05:30:41.788Z,12.66
2023-04-18T05:33:09.853Z,12.68
2023-04-18T05:35:37.876Z,12.71
2023-04-18T05:38:06.197Z,12.78
2023-04-18T05:40:34.270Z,12.88
2023-04-18T05:43:02.231Z,13.22
2023-04-18T05:45:30.309Z,13.80
2023-04-18T05:47:58.328Z,14.19
2023-04-18T05:50:26.292Z,14.40
2023-04-18T05:52:54.263Z,14.56
2023-04-18T05:55:22.286Z,14.71
2023-04-18T05:57:50.207Z,14.87
2023-04-18T06:00:19.219Z,15.01
2023-04-18T06:02:47.363Z,15.18
2023-04-18T06:05:15.635Z,15.32
2023-04-18T06:07:43.909Z,15.52
2023-04-18T06:10:13.650Z,15.78
2023-04-18T06:12:42.366Z,16.23
2023-04-18T06:15:10.975Z,16.68
2023-04-18T06:17:39.746Z,17.04
2023-04-18T06:20:08.178Z,17.26
2023-04-18T06:22:36.179Z,17.35
2023-04-18T06:25:04.714Z,17.66
2023-04-18T06:27:32.733Z,17.97
2023-04-18T06:30:00.696Z,18.15
2023-04-18T06:32:28.713Z,18.38
2023-04-18T06:34:56.841Z,18.52
2023-04-18T06:37:25.027Z,18.63
2023-04-18T06:39:52.952Z,18.71
2023-04-18T06:42:22.595Z,18.63
2023-04-18T06:44:50.963Z,18.70
2023-04-18T06:47:18.937Z,18.67
2023-04-18T06:49:46.958Z,18.41
2023-04-18T06:52:14.881Z,18.10
2023-04-18T06:54:42.939Z,17.75
2023-04-18T06:57:11.119Z,17.43
2023-04-18T06:59:40.922Z,17.07
2023-04-18T07:02:09.037Z,16.65
2023-04-18T07:04:37.338Z,16.30
2023-04-18T07:07:05.440Z,16.02
2023-04-18T07:09:33.507Z,15.80
2023-04-18T07:12:01.463Z,15.62
2023-04-18T07:14:30.143Z,15.51
2023-04-18T07:17:01.150Z,15.47
2023-04-18T07:19:29.105Z,15.37
2023-04-18T07:21:57.237Z,15.30
2023-04-18T07:24:25.335Z,15.26
2023-04-18T07:26:55.040Z,15.26
2023-04-18T07:29:23.407Z,15.23
2023-04-18T07:31:52.181Z,15.23
2023-04-18T07:34:22.208Z,15.22
2023-04-18T07:36:50.264Z,15.25
2023-04-18T07:39:18.241Z,15.28
2023-04-18T07:41:46.333Z,15.37
2023-04-18T07:44:14.620Z,15.45
2023-04-18T07:46:42.985Z,15.53
2023-04-18T07:49:11.094Z,15.59
2023-04-18T07:51:39.310Z,15.63
2023-04-18T07:54:07.393Z,15.66
2023-04-18T07:56:35.358Z,15.72
2023-04-18T07:59:03.377Z,15.78
2023-04-18T08:01:31.724Z,15.87
2023-04-18T08:04:02.076Z,15.88
2023-04-18T08:06:30.905Z,15.96
2023-04-18T08:08:59.294Z,16.04
2023-04-18T08:11:27.607Z,16.16
2023-04-18T08:13:55.739Z,16.25
2023-04-18T08:16:23.852Z,16.34
2023-04-18T08:18:52.332Z,16.46
2023-04-18T08:21:20.556Z,16.53
2023-04-18T08:23:48.730Z,16.55
2023-04-18T08:26:16.766Z,16.53
2023-04-18T08:28:46.565Z,16.57
2023-04-18T08:31:16.474Z,16.63
2023-04-18T08:33:44.498Z,16.69
2023-04-18T08:36:12.567Z,16.74
2023-04-18T08:38:40.703Z,16.78
2023-04-18T08:41:08.878Z,16.88
2023-04-18T08:43:38.356Z,16.98
2023-04-18T08:46:06.910Z,17.07
2023-04-18T08:48:35.064Z,17.18
2023-04-18T08:51:03.226Z,17.35
2023-04-18T08:53:33.933Z,17.57
2023-04-18T08:56:03.289Z,17.81
2023-04-18T08:58:33.968Z,18.05
2023-04-18T09:01:02.647Z,18.22
2023-04-18T09:03:39.184Z,18.44
2023-04-18T09:06:18.805Z,18.59
2023-04-18T09:09:10.708Z,18.69
2023-04-18T09:11:38.647Z,18.75
2023-04-18T09:14:06.663Z,18.85
2023-04-18T09:16:50.924Z,18.86
2023-04-18T09:19:19.330Z,18.83
2023-04-18T09:21:58.418Z,18.80
2023-04-18T09:24:28.545Z,18.77
2023-04-18T09:26:58.750Z,18.75
2023-04-18T09:29:43.557Z,18.74
2023-04-18T09:32:11.563Z,18.72
2023-04-18T09:34:42.701Z,18.68
2023-04-18T09:37:13.681Z,18.53
2023-04-18T09:39:44.596Z,18.34
2023-04-18T09:42:12.858Z,18.17
2023-04-18T09:45:05.752Z,18.00
2023-04-18T09:47:36.530Z,17.76
2023-04-18T09:50:07.496Z,17.55
2023-04-18T09:52:38.011Z,17.38
2023-04-18T09:55:09.443Z,17.37
2023-04-18T09:57:41.855Z,17.38
2023-04-18T10:00:20.491Z,17.42
2023-04-18T10:02:59.957Z,17.47
2023-04-18T10:05:33.917Z,17.46
2023-04-18T10:08:02.614Z,17.33
2023-04-18T10:10:30.981Z,17.21
2023-04-18T10:13:01.505Z,17.14
2023-04-18T10:15:30.898Z,17.07
2023-04-18T10:18:09.263Z,16.96
2023-04-18T10:20:37.222Z,16.92
2023-04-18T10:23:36.288Z,16.91
2023-04-18T10:26:06.295Z,16.82
2023-04-18T10:28:57.477Z,16.77
2023-04-18T10:31:29.573Z,16.70
2023-04-18T10:36:30.458Z,16.69
2023-04-18T10:39:20.139Z,16.60
2023-04-18T10:41:50.726Z,16.49
2023-04-18T10:44:23.726Z,16.44
2023-04-18T10:46:52.116Z,16.40
2023-04-18T10:49:24.029Z,16.37
2023-04-18T10:51:59.469Z,16.36
2023-04-18T10:54:28.706Z,16.33
2023-04-18T10:56:58.703Z,16.26
2023-04-18T10:59:28.947Z,16.19
2023-04-18T11:02:03.869Z,16.15
2023-04-18T11:04:32.095Z,16.13
2023-04-18T11:07:00.336Z,16.13
2023-04-18T11:09:28.345Z,16.12
2023-04-18T11:12:10.787Z,16.03
2023-04-18T11:14:43.389Z,15.89
2023-04-18T11:17:22.094Z,15.77
2023-04-18T11:19:51.722Z,15.68
2023-04-18T11:22:19.683Z,15.62
2023-04-18T11:24:47.847Z,15.51
2023-04-18T11:27:16.273Z,15.45
2023-04-18T11:29:44.314Z,15.40
2023-04-18T11:32:12.742Z,15.36
2023-04-18T11:34:41.151Z,15.22
2023-04-18T11:37:09.197Z,15.05
2023-04-18T11:39:44.258Z,14.93
2023-04-18T11:42:12.634Z,14.84
2023-04-18T11:44:44.090Z,14.76
2023-04-18T11:47:25.008Z,14.73
2023-04-18T11:49:57.630Z,14.71
2023-04-18T11:52:31.460Z,14.63
2023-04-18T11:55:25.019Z,14.55
2023-04-18T11:57:57.171Z,14.43
2023-04-18T12:00:44.783Z,14.37
2023-04-18T12:03:17.345Z,14.30
2023-04-18T12:05:45.873Z,14.25
2023-04-18T12:08:23.152Z,14.27
2023-04-18T12:10:52.501Z,14.24
2023-04-18T12:13:31.646Z,14.21
2023-04-18T12:16:02.316Z,14.22
2023-04-18T12:18:31.719Z,14.26
2023-04-18T12:21:02.469Z,14.23
2023-04-18T12:23:35.625Z,14.19
2023-04-18T12:26:08.610Z,14.21
2023-04-18T12:28:36.790Z,14.22
2023-04-18T12:31:08.360Z,14.21
2023-04-18T12:33:36.874Z,14.19
2023-04-18T12:36:06.192Z,14.19
2023-04-18T12:38:35.516Z,14.22
2023-04-18T12:41:03.900Z,14.15
2023-04-18T12:43:32.061Z,14.09
2023-04-18T12:46:00.149Z,14.04
2023-04-18T12:48:28.382Z,14.03
2023-04-18T12:50:56.441Z,14.04
2023-04-18T12:53:24.550Z,14.04
2023-04-18T12:55:52.916Z,14.02
2023-04-18T12:58:21.660Z,13.94
2023-04-18T13:00:49.968Z,13.93
2023-04-18T13:03:18.192Z,13.95
2023-04-18T13:05:46.548Z,13.94
2023-04-18T13:08:17.773Z,13.90
2023-04-18T13:10:47.765Z,13.92
2023-04-18T13:13:16.143Z,13.98
2023-04-18T13:15:44.329Z,14.09
2023-04-18T13:18:12.499Z,14.16
2023-04-18T13:20:40.735Z,14.25
2023-04-18T13:23:08.882Z,14.34
2023-04-18T13:25:36.945Z,14.44
2023-04-18T13:28:05.564Z,14.51
2023-04-18T13:30:35.872Z,14.47
2023-04-18T13:33:04.316Z,14.37
2023-04-18T13:35:32.301Z,14.32
2023-04-18T13:38:00.410Z,14.30
2023-04-18T13:40:28.751Z,14.28
2023-04-18T13:42:59.493Z,14.23
2023-04-18T13:45:27.788Z,14.15
2023-04-18T13:47:56.260Z,14.06
2023-04-18T13:50:24.656Z,14.01
2023-04-18T13:52:54.653Z,13.93
2023-04-18T13:55:23.053Z,13.80
2023-04-18T13:57:51.353Z,13.66
2023-04-18T14:00:20.624Z,13.58
2023-04-18T14:02:49.738Z,13.49
2023-04-18T14:05:18.016Z,13.38
2023-04-18T14:07:46.026Z,13.31
2023-04-18T14:10:14.182Z,13.27
2023-04-18T14:12:48.320Z,13.20
2023-04-18T14:18:55.416Z,12.88
2023-04-18T14:21:23.582Z,12.85
2023-04-18T14:23:52.738Z,12.81
2023-04-18T14:26:21.514Z,12.77
2023-04-18T14:28:49.604Z,12.75
2023-04-18T14:31:17.570Z,12.78
2023-04-18T14:33:46.509Z,12.82
2023-04-18T14:36:17.340Z,12.84
2023-04-18T14:38:49.598Z,12.85
2023-04-18T14:41:17.642Z,12.85
2023-04-18T14:43:45.843Z,12.85
2023-04-18T14:46:16.676Z,12.86
2023-04-18T14:48:46.618Z,12.86
2023-04-18T14:51:16.201Z,12.90
2023-04-18T14:53:45.052Z,12.96
2023-04-18T14:56:13.055Z,13.01
2023-04-18T14:58:41.151Z,13.05
2023-04-18T15:01:09.200Z,13.07
2023-04-18T15:03:37.348Z,13.12
2023-04-18T15:06:05.718Z,13.13
2023-04-18T15:08:34.650Z,13.11
2023-04-18T15:11:07.620Z,13.09
2023-04-18T15:13:36.919Z,13.11
2023-04-18T15:16:05.403Z,13.09
2023-04-18T15:18:33.463Z,13.07
2023-04-18T15:21:01.684Z,13.07
2023-04-18T15:23:29.720Z,13.08
2023-04-18T15:25:57.781Z,13.09
2023-04-18T15:28:26.160Z,13.08
2023-04-18T15:30:54.542Z,13.07
2023-04-18T15:33:25.263Z,13.06
2023-04-18T15:35:55.871Z,13.08
2023-04-18T15:38:23.823Z,13.10
2023-04-18T15:40:51.899Z,13.15
2023-04-18T15:43:20.305Z,13.17
2023-04-18T15:45:49.205Z,13.16
2023-04-18T15:48:17.357Z,13.14
2023-04-18T15:50:51.298Z,13.09
2023-04-18T15:53:19.926Z,13.02
2023-04-18T15:55:47.895Z,12.93
2023-04-18T15:58:15.936Z,12.81
2023-04-18T16:00:44.505Z,12.66
2023-04-18T16:03:12.716Z,12.55
2023-04-18T16:05:40.838Z,12.51
2023-04-18T16:08:09.539Z,12.49
2023-04-18T16:10:38.214Z,12.43
2023-04-18T16:13:06.888Z,12.39
2023-04-18T16:15:35.981Z,12.35
2023-04-18T16:18:04.486Z,12.30
2023-04-18T16:20:33.509Z,12.29
2023-04-18T16:23:01.534Z,12.30
2023-04-18T16:25:29.490Z,12.27
2023-04-18T16:27:57.572Z,12.24
2023-04-18T16:30:25.528Z,12.23
2023-04-18T16:32:54.487Z,12.24
2023-04-18T16:35:22.666Z,12.23
2023-04-18T16:37:50.837Z,12.19
2023-04-18T16:40:18.779Z,12.16
2023-04-18T16:42:47.123Z,12.10
2023-04-18T16:45:15.162Z,12.00
2023-04-18T16:47:43.104Z,11.86
2023-04-18T16:50:11.398Z,11.76
2023-04-18T16:52:39.814Z,11.66
2023-04-18T16:55:08.118Z,11.54
2023-04-18T16:57:36.063Z,11.41
2023-04-18T17:00:05.150Z,11.27
2023-04-18T17:02:33.302Z,11.17
2023-04-18T17:05:01.519Z,11.07
2023-04-18T17:07:30.493Z,11.00
2023-04-18T17:09:58.658Z,10.92
2023-04-18T17:12:27.350Z,10.81
2023-04-18T17:14:55.332Z,10.71
2023-04-18T17:17:24.156Z,10.55
2023-04-18T17:19:52.173Z,10.40
2023-04-18T17:22:20.136Z,10.29
2023-04-18T17:24:48.126Z,10.20
2023-04-18T17:27:16.176Z,10.12
2023-04-18T17:29:44.152Z,10.06
2023-04-18T17:32:12.253Z,9.98
2023-04-18T17:34:40.291Z,9.88
2023-04-18T17:37:08.248Z,9.79
2023-04-18T17:39:36.219Z,9.73
2023-04-18T17:42:04.297Z,9.67
2023-04-18T17:44:32.301Z,9.59
2023-04-18T17:47:01.116Z,9.51
2023-04-18T17:49:34.677Z,9.41
2023-04-18T17:52:04.367Z,9.31
2023-04-18T17:54:32.837Z,9.23
2023-04-18T17:57:02.192Z,9.21
2023-04-18T17:59:30.613Z,9.18
2023-04-18T18:01:59.664Z,9.14
2023-04-18T18:04:28.014Z,9.08
2023-04-18T18:06:57.087Z,9.00
2023-04-18T18:09:25.317Z,8.94
2023-04-18T18:11:55.821Z,8.90
2023-04-18T18:14:24.466Z,8.82
2023-04-18T18:16:53.021Z,8.73
2023-04-18T18:19:21.128Z,8.69
2023-04-18T18:21:49.396Z,8.66
2023-04-18T18:24:18.790Z,8.62
2023-04-18T18:26:46.922Z,8.63
2023-04-18T18:29:14.970Z,8.63
2023-04-18T18:31:43.220Z,8.58
2023-04-18T18:34:11.570Z,8.51
2023-04-18T18:36:40.230Z,8.48
2023-04-18T18:39:08.306Z,8.48
2023-04-18T18:41:36.436Z,8.48
2023-04-18T18:44:04.490Z,8.43
2023-04-18T18:46:32.519Z,8.40
2023-04-18T18:49:00.513Z,8.39
2023-04-18T18:51:29.292Z,8.37
2023-04-18T18:53:57.388Z,8.35
2023-04-18T18:56:25.450Z,8.33
2023-04-18T18:58:55.664Z,8.29
2023-04-18T19:01:24.219Z,8.25
2023-04-18T19:03:52.623Z,8.21
2023-04-18T19:06:20.807Z,8.14
2023-04-18T19:08:48.748Z,8.08
2023-04-18T19:11:18.322Z,8.03
2023-04-18T19:13:46.351Z,7.98
2023-04-18T19:16:14.334Z,7.97
2023-04-18T19:18:47.072Z,7.93
2023-04-18T19:21:16.059Z,7.89
2023-04-18T19:23:44.073Z,7.86
2023-04-18T19:26:12.130Z,7.82
2023-04-18T19:28:40.388Z,7.77
2023-04-18T19:31:09.674Z,7.74
2023-04-18T19:33:38.356Z,7.68
2023-04-18T19:36:06.361Z,7.66
2023-04-18T19:38:34.939Z,7.61
2023-04-18T19:41:02.900Z,7.56
2023-04-18T19:43:30.879Z,7.49
2023-04-18T19:45:59.340Z,7.44
2023-04-18T19:48:27.298Z,7.43
2023-04-18T19:50:56.580Z,7.37
2023-04-18T19:53:24.795Z,7.33
2023-04-18T19:55:55.018Z,7.30
2023-04-18T19:58:49.530Z,7.28
2023-04-18T20:01:19.281Z,7.23
2023-04-18T20:03:48.324Z,7.19
2023-04-18T20:06:18.229Z,7.21
2023-04-18T20:08:46.309Z,7.19
2023-04-18T20:11:14.569Z,7.16
2023-04-18T20:13:42.892Z,7.14
2023-04-18T20:16:12.451Z,7.12
2023-04-18T20:18:41.768Z,7.10
2023-04-18T20:21:10.964Z,7.09
2023-04-18T20:23:41.801Z,7.09
2023-04-18T20:26:10.170Z,7.08
2023-04-18T20:28:38.114Z,7.07
2023-04-18T20:31:06.260Z,7.07
2023-04-18T20:33:34.675Z,7.06
2023-04-18T20:36:02.645Z,7.03
2023-04-18T20:38:30.721Z,7.00
2023-04-18T20:40:59.047Z,6.97
2023-04-18T20:43:28.119Z,6.95
2023-04-18T20:45:57.922Z,6.92
2023-04-18T20:48:26.193Z,6.91
2023-04-18T20:50:54.243Z,6.92
2023-04-18T20:53:25.292Z,6.91
2023-04-18T20:55:53.356Z,6.92
2023-04-18T20:58:21.431Z,6.93
2023-04-18T21:00:49.653Z,6.94
2023-04-18T21:03:17.704Z,6.93
2023-04-18T21:05:45.956Z,6.92
2023-04-18T21:08:14.553Z,6.94
2023-04-18T21:10:42.605Z,6.96
2023-04-18T21:13:12.755Z,6.97
2023-04-18T21:15:42.389Z,6.97
2023-04-18T21:18:10.810Z,6.97
2023-04-18T21:20:38.824Z,6.96
2023-04-18T21:23:06.844Z,6.96
2023-04-18T21:25:35.191Z,6.96
2023-04-18T21:28:03.196Z,6.96
2023-04-18T21:30:31.366Z,6.96
2023-04-18T21:32:59.411Z,6.97
2023-04-18T21:35:29.900Z,6.97
2023-04-18T21:37:58.212Z,6.97
2023-04-18T21:40:27.017Z,6.99
2023-04-18T21:42:54.993Z,6.97
2023-04-18T21:45:23.233Z,6.94
2023-04-18T21:47:52.640Z,6.92
2023-04-18T21:50:20.861Z,6.89
2023-04-18T21:52:48.810Z,6.86
2023-04-18T21:55:17.901Z,6.82
2023-04-18T21:57:45.973Z,6.79
2023-04-18T22:00:14.310Z,6.76
2023-04-18T22:02:42.337Z,6.70
2023-04-18T22:05:12.979Z,6.67
2023-04-18T22:07:54.393Z,6.64
2023-04-18T22:10:25.749Z,6.59
2023-04-18T22:12:58.564Z,6.57
2023-04-18T22:15:30.679Z,6.55
2023-04-18T22:17:59.271Z,6.55
2023-04-18T22:20:27.290Z,6.55
2023-04-18T22:22:55.311Z,6.55
2023-04-18T22:25:23.345Z,6.58
2023-04-18T22:27:51.286Z,6.59
2023-04-18T22:30:19.234Z,6.61
2023-04-18T22:32:47.780Z,6.61
2023-04-18T22:35:16.062Z,6.62
2023-04-18T22:37:44.112Z,6.66
2023-04-18T22:40:13.078Z,6.70
2023-04-18T22:42:41.007Z,6.71
2023-04-18T22:45:09.532Z,6.74
2023-04-18T22:47:37.554Z,6.77
2023-04-18T22:50:06.363Z,6.81
2023-04-18T22:52:34.958Z,6.86
2023-04-18T22:55:03.491Z,6.91
2023-04-18T22:57:31.522Z,6.93
2023-04-18T22:59:59.522Z,6.97
2023-04-18T23:02:27.777Z,7.00
2023-04-18T23:04:59.203Z,7.06
2023-04-18T23:07:27.111Z,7.12
2023-04-18T23:09:55.081Z,7.18
2023-04-18T23:12:23.116Z,7.22
2023-04-18T23:14:51.157Z,7.22
2023-04-18T23:17:19.157Z,7.24
2023-04-18T23:19:47.230Z,7.28
2023-04-18T23:22:15.207Z,7.33
2023-04-18T23:24:43.128Z,7.34
2023-04-18T23:27:11.129Z,7.36
2023-04-18T23:29:39.626Z,7.35
2023-04-18T23:32:07.709Z,7.34
2023-04-18T23:34:35.752Z,7.34
2023-04-18T23:37:03.740Z,7.34
2023-04-18T23:39:31.706Z,7.33
2023-04-18T23:41:59.671Z,7.34
2023-04-18T23:44:27.680Z,7.35
2023-04-18T23:46:55.742Z,7.37
2023-04-18T23:49:23.962Z,7.35
2023-04-18T23:51:51.863Z,7.35
2023-04-18T23:54:19.905Z,7.37
2023-04-18T23:56:47.821Z,7.36
2023-04-18T23:59:15.842Z,7.36
